createdAt,value
2022-08-09T00:00:00.466Z,98501.59
2022-08-09T00:02:42.859Z,98502.75
2022-08-09T00:06:19.253Z,98502.53
2022-08-09T00:08:10.101Z,98515.78
2022-08-09T00:10:38.371Z,98511.34
2022-08-09T00:13:06.035Z,98507.47
2022-08-09T00:15:58.130Z,98509.59
2022-08-09T00:18:27.594Z,98510.72
2022-08-09T00:20:56.906Z,98509.38
2022-08-09T00:23:56.241Z,98513.34
2022-08-09T00:26:14.642Z,98508.44
2022-08-09T00:28:42.185Z,98515.91
2022-08-09T00:31:57.607Z,98521.91
2022-08-09T00:34:08.548Z,98512.38
2022-08-09T00:36:38.453Z,98517.91
2022-08-09T00:39:17.091Z,98521.72
2022-08-09T00:44:16.260Z,98524.16
2022-08-09T00:44:46.862Z,98516.91
2022-08-09T00:47:15.581Z,98521.59
2022-08-09T00:49:43.833Z,98521.16
2022-08-09T00:52:22.371Z,98523.69
2022-08-09T00:55:00.101Z,98531.63
2022-08-09T00:57:34.630Z,98528.69
2022-08-09T01:00:21.107Z,98522.03
2022-08-09T01:02:53.881Z,98527.44
2022-08-09T01:05:53.788Z,98520.69
2022-08-09T01:08:27.381Z,98529.59
2022-08-09T01:11:17.762Z,98526.69
2022-08-09T01:14:00.044Z,98524.84
2022-08-09T01:16:35.801Z,98528.03
2022-08-09T01:19:16.675Z,98532.22
2022-08-09T01:22:10.278Z,98526.66
2022-08-09T01:24:55.157Z,98539.16
2022-08-09T01:27:29.221Z,98537.16
2022-08-09T01:30:05.734Z,98542.50
2022-08-09T01:32:38.218Z,98538.59
2022-08-09T01:35:29.084Z,98538.00
2022-08-09T01:38:10.095Z,98543.41
2022-08-09T01:40:45.182Z,98545.03
2022-08-09T01:43:24.214Z,98538.59
2022-08-09T01:45:54.594Z,98538.91
2022-08-09T01:48:29.620Z,98534.09
2022-08-09T01:50:59.920Z,98541.63
2022-08-09T01:53:40.987Z,98542.09
2022-08-09T01:56:10.575Z,98538.00
2022-08-09T01:58:42.399Z,98535.09
2022-08-09T02:01:18.087Z,98539.59
2022-08-09T02:03:47.250Z,98542.47
2022-08-09T02:06:16.909Z,98536.94
2022-08-09T02:08:58.432Z,98538.47
2022-08-09T02:11:42.920Z,98542.84
2022-08-09T02:14:25.641Z,98537.03
2022-08-09T02:17:15.212Z,98537.31
2022-08-09T02:19:43.884Z,98535.88
2022-08-09T02:22:17.111Z,98532.94
2022-08-09T02:24:51.943Z,98526.81
2022-08-09T02:27:43.115Z,98530.63
2022-08-09T02:30:12.358Z,98533.34
2022-08-09T02:32:47.173Z,98536.88
2022-08-09T02:35:26.080Z,98542.66
2022-08-09T02:38:10.796Z,98542.59
2022-08-09T02:40:49.771Z,98541.91
2022-08-09T02:43:21.232Z,98538.56
2022-08-09T02:45:52.510Z,98542.25
2022-08-09T02:48:31.211Z,98546.50
2022-08-09T02:51:02.498Z,98544.75
2022-08-09T02:53:34.883Z,98542.94
2022-08-09T02:56:04.943Z,98549.00
2022-08-09T02:58:37.449Z,98553.81
2022-08-09T03:01:10.659Z,98549.00
2022-08-09T03:04:16.948Z,98547.09
2022-08-09T03:06:29.180Z,98543.56
2022-08-09T03:08:59.217Z,98547.00
2022-08-09T03:11:29.638Z,98547.25
2022-08-09T03:14:16.683Z,98546.41
2022-08-09T03:16:48.050Z,98553.41
2022-08-09T03:19:58.125Z,98553.31
2022-08-09T03:22:12.181Z,98553.69
2022-08-09T03:25:05.926Z,98551.41
2022-08-09T03:27:45.104Z,98553.53
2022-08-09T03:30:13.698Z,98553.41
2022-08-09T03:32:43.289Z,98558.75
2022-08-09T03:35:15.036Z,98554.38
2022-08-09T03:37:55.628Z,98556.78
2022-08-09T03:40:24.695Z,98557.50
2022-08-09T03:42:52.203Z,98551.91
2022-08-09T03:46:04.983Z,98548.38
2022-08-09T03:48:08.479Z,98549.19
2022-08-09T03:50:41.246Z,98556.31
2022-08-09T03:53:10.656Z,98559.03
2022-08-09T03:55:40.930Z,98562.69
2022-08-09T03:58:16.984Z,98559.38
2022-08-09T04:00:49.763Z,98564.22
2022-08-09T04:03:35.754Z,98560.03
2022-08-09T04:06:07.675Z,98554.31
2022-08-09T04:08:39.219Z,98552.81
2022-08-09T04:11:06.670Z,98557.50
2022-08-09T04:14:36.751Z,98560.44
2022-08-09T04:16:26.004Z,98551.84
2022-08-09T04:18:54.900Z,98562.16
2022-08-09T04:21:22.285Z,98556.00
2022-08-09T04:23:53.967Z,98553.75
2022-08-09T04:26:24.822Z,98556.13
2022-08-09T04:29:09.612Z,98557.91
2022-08-09T04:31:47.034Z,98550.78
2022-08-09T04:34:18.800Z,98551.69
2022-08-09T04:36:57.911Z,98545.09
2022-08-09T04:39:25.444Z,98549.50
2022-08-09T04:41:59.821Z,98548.66
2022-08-09T04:44:30.141Z,98548.41
2022-08-09T04:47:05.776Z,98551.63
2022-08-09T04:49:53.416Z,98549.81
2022-08-09T04:52:26.352Z,98549.81
2022-08-09T04:54:54.610Z,98552.31
2022-08-09T04:57:24.370Z,98552.53
2022-08-09T04:59:54.797Z,98554.59
2022-08-09T05:02:23.018Z,98554.31
2022-08-09T05:04:55.003Z,98549.50
2022-08-09T05:07:24.578Z,98543.69
2022-08-09T05:09:51.971Z,98544.66
2022-08-09T05:12:22.643Z,98548.19
2022-08-09T05:14:50.267Z,98538.56
2022-08-09T05:18:38.428Z,98543.28
2022-08-09T05:20:09.225Z,98541.31
2022-08-09T05:23:55.201Z,98542.41
2022-08-09T05:25:24.441Z,98546.19
2022-08-09T05:27:55.344Z,98543.69
2022-08-09T05:30:22.994Z,98539.81
2022-08-09T05:32:50.952Z,98537.88
2022-08-09T05:35:22.411Z,98535.66
2022-08-09T05:37:50.113Z,98532.34
2022-08-09T05:40:18.397Z,98538.47
2022-08-09T05:42:46.239Z,98534.47
2022-08-09T05:45:14.325Z,98533.16
2022-08-09T05:47:52.277Z,98537.06
2022-08-09T05:50:25.765Z,98538.03
2022-08-09T05:53:02.858Z,98536.34
2022-08-09T05:55:31.220Z,98536.50
2022-08-09T05:57:58.906Z,98533.28
2022-08-09T06:00:26.933Z,98525.94
2022-08-09T06:02:57.354Z,98526.50
2022-08-09T06:05:31.336Z,98533.38
2022-08-09T06:08:19.313Z,98528.28
2022-08-09T06:10:52.200Z,98532.91
2022-08-09T06:13:20.559Z,98540.72
2022-08-09T06:15:51.469Z,98528.66
2022-08-09T06:18:24.946Z,98533.75
2022-08-09T06:20:57.680Z,98527.09
2022-08-09T06:23:55.455Z,98527.13
2022-08-09T06:26:14.792Z,98532.56
2022-08-09T06:28:48.779Z,98528.75
2022-08-09T06:31:16.231Z,98529.13
2022-08-09T06:33:43.870Z,98518.56
2022-08-09T06:36:27.031Z,98521.31
2022-08-09T06:38:55.900Z,98514.69
2022-08-09T06:42:07.503Z,98513.72
2022-08-09T06:44:12.375Z,98512.19
2022-08-09T06:46:45.685Z,98514.91
2022-08-09T06:49:16.166Z,98513.22
2022-08-09T06:51:51.660Z,98518.56
2022-08-09T06:54:20.392Z,98518.91
2022-08-09T06:56:47.845Z,98506.88
2022-08-09T07:00:53.931Z,98501.78
2022-08-09T07:02:04.679Z,98502.94
2022-08-09T07:04:32.831Z,98508.00
2022-08-09T07:07:04.731Z,98505.75
2022-08-09T07:09:54.900Z,98498.56
2022-08-09T07:12:20.130Z,98500.22
2022-08-09T07:14:51.300Z,98499.63
2022-08-09T07:17:19.436Z,98492.22
2022-08-09T07:19:47.896Z,98498.16
2022-08-09T07:22:34.920Z,98487.03
2022-08-09T07:25:05.308Z,98490.31
2022-08-09T07:27:43.008Z,98497.44
2022-08-09T07:30:21.790Z,98492.81
2022-08-09T07:32:52.746Z,98491.53
2022-08-09T07:35:22.818Z,98485.94
2022-08-09T07:37:51.651Z,98491.94
2022-08-09T07:40:27.167Z,98479.47
2022-08-09T07:43:01.292Z,98484.34
2022-08-09T07:45:39.150Z,98477.88
2022-08-09T07:48:28.836Z,98481.75
2022-08-09T07:51:09.289Z,98483.88
2022-08-09T07:54:05.645Z,98475.91
2022-08-09T07:56:34.079Z,98474.03
2022-08-09T07:59:03.076Z,98467.50
2022-08-09T08:01:33.938Z,98466.19
2022-08-09T08:04:02.350Z,98469.03
2022-08-09T08:06:32.017Z,98468.00
2022-08-09T08:09:05.339Z,98470.28
2022-08-09T08:12:10.047Z,98462.25
2022-08-09T08:14:32.976Z,98457.47
2022-08-09T08:17:09.121Z,98460.06
2022-08-09T08:19:39.279Z,98455.28
2022-08-09T08:22:06.696Z,98457.69
2022-08-09T08:24:40.078Z,98450.66
2022-08-09T08:27:17.178Z,98445.69
2022-08-09T08:29:50.094Z,98447.50
2022-08-09T08:32:34.560Z,98453.53
2022-08-09T08:35:08.582Z,98449.53
2022-08-09T08:37:40.826Z,98444.69
2022-08-09T08:40:12.456Z,98441.38
2022-08-09T08:42:40.305Z,98445.88
2022-08-09T08:45:13.870Z,98445.63
2022-08-09T08:47:44.934Z,98435.41
2022-08-09T08:50:15.653Z,98440.09
2022-08-09T08:52:58.759Z,98436.13
2022-08-09T08:55:28.915Z,98437.06
2022-08-09T08:57:59.958Z,98438.38
2022-08-09T09:00:34.453Z,98434.56
2022-08-09T09:03:08.854Z,98431.94
2022-08-09T09:05:58.397Z,98432.72
2022-08-09T09:08:32.081Z,98428.34
2022-08-09T09:11:07.788Z,98433.47
2022-08-09T09:13:47.463Z,98425.75
2022-08-09T09:16:30.774Z,98432.03
2022-08-09T09:19:36.887Z,98416.41
2022-08-09T09:22:04.880Z,98424.13
2022-08-09T09:24:37.899Z,98424.84
2022-08-09T09:27:21.747Z,98425.63
2022-08-09T09:30:22.712Z,98427.56
2022-08-09T09:33:15.734Z,98419.66
2022-08-09T09:36:00.665Z,98418.75
2022-08-09T09:38:45.822Z,98425.69
2022-08-09T09:41:33.102Z,98410.91
2022-08-09T09:44:12.760Z,98416.75
2022-08-09T09:46:50.531Z,98418.47
2022-08-09T09:49:31.992Z,98416.41
2022-08-09T09:52:16.539Z,98414.69
2022-08-09T09:55:02.599Z,98414.28
2022-08-09T09:58:03.390Z,98412.28
2022-08-09T10:00:34.552Z,98411.50
2022-08-09T10:03:11.839Z,98419.22
2022-08-09T10:06:03.248Z,98409.31
2022-08-09T10:08:31.915Z,98414.44
2022-08-09T10:10:59.504Z,98409.06
2022-08-09T10:13:45.058Z,98410.38
2022-08-09T10:16:57.051Z,98409.97
2022-08-09T10:19:02.989Z,98400.31
2022-08-09T10:21:31.621Z,98399.47
2022-08-09T10:24:01.122Z,98394.19
2022-08-09T10:26:31.569Z,98397.59
2022-08-09T10:29:22.647Z,98389.88
2022-08-09T10:34:37.303Z,98390.03
2022-08-09T10:50:31.322Z,98394.16
2022-08-09T10:53:10.364Z,98386.47
2022-08-09T10:55:55.390Z,98384.59
2022-08-09T10:58:34.795Z,98391.69
2022-08-09T11:03:02.788Z,98384.47
2022-08-09T11:04:31.003Z,98382.94
2022-08-09T11:07:56.808Z,98372.81
2022-08-09T11:10:56.352Z,98386.19
2022-08-09T11:13:53.977Z,98383.06
2022-08-09T11:16:37.700Z,98388.22
2022-08-09T11:19:09.762Z,98390.38
2022-08-09T11:22:05.010Z,98386.56
2022-08-09T11:25:10.299Z,98403.56
2022-08-09T11:28:02.873Z,98391.59
2022-08-09T11:30:36.000Z,98392.66
2022-08-09T11:33:07.901Z,98390.63
2022-08-09T11:35:50.145Z,98400.34
2022-08-09T11:38:22.286Z,98393.81
2022-08-09T11:40:57.963Z,98397.94
2022-08-09T11:43:47.328Z,98388.53
2022-08-09T11:46:26.462Z,98396.78
2022-08-09T11:49:05.228Z,98391.47
2022-08-09T11:53:03.270Z,98396.19
2022-08-09T11:55:37.471Z,98383.78
2022-08-09T11:58:50.023Z,98384.66
2022-08-09T12:02:15.749Z,98382.81
2022-08-09T12:04:09.753Z,98383.00
2022-08-09T12:06:55.771Z,98374.63
2022-08-09T12:09:27.034Z,98377.56
2022-08-09T12:12:04.288Z,98376.16
2022-08-09T12:14:40.806Z,98371.22
2022-08-09T12:17:33.845Z,98364.63
2022-08-09T12:20:16.794Z,98358.63
2022-08-09T12:22:52.353Z,98360.28
2022-08-09T12:25:36.606Z,98351.31
2022-08-09T12:29:09.807Z,98350.38
2022-08-09T12:30:59.376Z,98352.97
2022-08-09T12:33:51.002Z,98354.16
2022-08-09T12:36:32.303Z,98345.41
2022-08-09T12:39:01.801Z,98356.47
2022-08-09T12:41:38.280Z,98346.38
2022-08-09T12:44:10.325Z,98348.91
2022-08-09T12:46:43.967Z,98348.50
2022-08-09T12:49:17.404Z,98346.56
2022-08-09T12:52:02.628Z,98348.63
2022-08-09T12:56:12.964Z,98339.06
2022-08-09T12:57:40.798Z,98340.75
2022-08-09T13:00:15.980Z,98337.78
2022-08-09T13:02:54.027Z,98336.47
2022-08-09T13:05:23.069Z,98345.13
2022-08-09T13:08:12.945Z,98350.59
2022-08-09T13:10:52.206Z,98354.25
2022-08-09T13:13:37.949Z,98356.41
2022-08-09T13:16:18.972Z,98352.53
2022-08-09T13:18:53.778Z,98357.91
2022-08-09T13:22:36.783Z,98364.53
2022-08-09T13:24:44.379Z,98366.78
2022-08-09T13:26:58.496Z,98363.59
2022-08-09T13:29:42.336Z,98365.44
2022-08-09T13:32:25.559Z,98378.44
2022-08-09T13:34:57.865Z,98382.44
2022-08-09T13:37:51.995Z,98374.94
2022-08-09T13:41:55.682Z,98381.28
2022-08-09T13:43:03.480Z,98380.53
2022-08-09T13:46:43.689Z,98371.84
2022-08-09T13:48:20.029Z,98381.00
2022-08-09T13:50:48.894Z,98378.75
2022-08-09T13:53:17.039Z,98376.47
2022-08-09T13:55:44.871Z,98376.13
2022-08-09T13:58:15.400Z,98380.59
2022-08-09T14:00:49.836Z,98374.19
2022-08-09T14:04:03.366Z,98375.28
2022-08-09T14:06:14.795Z,98372.56
2022-08-09T14:08:53.437Z,98376.41
2022-08-09T14:11:21.364Z,98376.41
2022-08-09T14:14:24.514Z,98374.84
2022-08-09T14:16:36.685Z,98387.47
2022-08-09T14:19:04.476Z,98375.06
2022-08-09T14:21:33.297Z,98383.56
2022-08-09T14:24:01.339Z,98386.13
2022-08-09T14:26:38.064Z,98392.81
2022-08-09T14:29:25.597Z,98390.47
2022-08-09T14:31:55.546Z,98396.50
2022-08-09T14:34:31.443Z,98396.25
2022-08-09T14:37:07.425Z,98397.81
2022-08-09T14:39:46.109Z,98394.00
2022-08-09T14:42:30.098Z,98398.44
2022-08-09T14:44:59.861Z,98400.00
2022-08-09T14:47:45.338Z,98405.13
2022-08-09T14:50:15.929Z,98408.06
2022-08-09T14:52:49.948Z,98405.75
2022-08-09T14:55:19.895Z,98411.38
2022-08-09T14:57:48.924Z,98407.75
2022-08-09T15:00:17.149Z,98406.44
2022-08-09T15:02:47.716Z,98411.22
2022-08-09T15:05:19.582Z,98411.38
2022-08-09T15:07:56.516Z,98410.25
2022-08-09T15:10:25.836Z,98408.25
2022-08-09T15:12:53.542Z,98416.16
2022-08-09T15:15:21.179Z,98415.16
2022-08-09T15:17:52.563Z,98418.34
2022-08-09T15:21:56.201Z,98421.03
2022-08-09T15:24:00.604Z,98423.94
2022-08-09T15:25:58.994Z,98429.09
2022-08-09T15:28:28.295Z,98424.16
2022-08-09T15:31:08.703Z,98420.91
2022-08-09T15:34:18.305Z,98416.13
2022-08-09T15:36:29.022Z,98422.91
2022-08-09T15:38:58.834Z,98428.06
2022-08-09T15:41:31.253Z,98433.84
2022-08-09T15:44:00.436Z,98432.94
2022-08-09T15:46:33.845Z,98435.44
2022-08-09T15:49:22.014Z,98442.22
2022-08-09T15:52:03.738Z,98436.31
2022-08-09T15:54:50.482Z,98442.22
2022-08-09T15:57:35.905Z,98449.34
2022-08-09T16:00:11.009Z,98444.63
2022-08-09T16:02:42.782Z,98447.56
2022-08-09T16:05:15.980Z,98456.44
2022-08-09T16:07:46.111Z,98457.53
2022-08-09T16:10:55.510Z,98457.72
2022-08-09T16:13:21.076Z,98458.06
2022-08-09T16:16:11.375Z,98462.78
2022-08-09T16:18:44.969Z,98460.56
2022-08-09T16:21:17.186Z,98451.03
2022-08-09T16:23:55.566Z,98460.88
2022-08-09T16:26:34.578Z,98448.56
2022-08-09T16:29:10.766Z,98457.81
2022-08-09T16:32:18.924Z,98462.78
2022-08-09T16:34:29.121Z,98463.28
2022-08-09T16:36:56.859Z,98457.69
2022-08-09T16:39:25.988Z,98457.13
2022-08-09T16:42:03.222Z,98449.69
2022-08-09T16:44:32.399Z,98447.28
2022-08-09T16:47:04.312Z,98440.72
2022-08-09T16:50:32.071Z,98435.75
2022-08-09T16:52:35.594Z,98433.53
2022-08-09T16:55:04.455Z,98430.16
2022-08-09T16:58:09.272Z,98422.94
2022-08-09T17:00:24.859Z,98430.75
2022-08-09T17:02:52.731Z,98428.97
2022-08-09T17:05:24.905Z,98437.16
2022-08-09T17:08:43.818Z,98434.19
2022-08-09T17:11:00.181Z,98441.44
2022-08-09T17:13:34.318Z,98441.66
2022-08-09T17:16:02.676Z,98440.97
2022-08-09T17:18:30.430Z,98437.06
2022-08-09T17:20:57.977Z,98430.97
2022-08-09T17:23:37.062Z,98433.94
2022-08-09T17:26:12.977Z,98430.16
2022-08-09T17:28:46.305Z,98431.03
2022-08-09T17:31:15.929Z,98433.38
2022-08-09T17:33:43.345Z,98432.31
2022-08-09T17:36:14.645Z,98429.56
2022-08-09T17:38:57.975Z,98433.63
2022-08-09T17:41:38.597Z,98434.94
2022-08-09T17:44:42.010Z,98439.41
2022-08-09T17:46:57.738Z,98437.19
2022-08-09T17:49:24.993Z,98429.66
2022-08-09T17:51:55.497Z,98432.31
2022-08-09T17:54:25.291Z,98425.19
2022-08-09T17:56:57.305Z,98430.38
2022-08-09T17:59:37.957Z,98428.34
2022-08-09T18:02:18.867Z,98430.97
2022-08-09T18:04:50.393Z,98433.13
2022-08-09T18:07:23.130Z,98439.41
2022-08-09T18:10:04.420Z,98427.44
2022-08-09T18:12:40.444Z,98433.69
2022-08-09T18:15:21.798Z,98437.16
2022-08-09T18:18:09.178Z,98437.09
2022-08-09T18:21:10.492Z,98430.22
2022-08-09T18:24:09.853Z,98442.28
2022-08-09T18:26:27.945Z,98427.25
2022-08-09T18:30:39.733Z,98431.38
2022-08-09T18:31:55.328Z,98425.63
2022-08-09T18:34:24.398Z,98438.19
2022-08-09T18:36:53.584Z,98433.47
2022-08-09T18:39:21.367Z,98431.88
2022-08-09T18:41:52.887Z,98436.84
2022-08-09T18:44:25.557Z,98439.16
2022-08-09T18:47:07.448Z,98445.69
2022-08-09T18:49:43.262Z,98443.75
2022-08-09T18:52:15.803Z,98444.78
2022-08-09T18:54:52.403Z,98444.44
2022-08-09T18:57:22.116Z,98434.00
2022-08-09T18:59:52.021Z,98441.00
2022-08-09T19:02:30.639Z,98440.63
2022-08-09T19:05:15.277Z,98443.50
2022-08-09T19:07:59.185Z,98441.47
2022-08-09T19:10:37.081Z,98434.22
2022-08-09T19:13:19.995Z,98433.47
2022-08-09T19:15:51.820Z,98429.41
2022-08-09T19:18:32.632Z,98439.09
2022-08-09T19:21:05.348Z,98436.69
2022-08-09T19:24:33.356Z,98437.00
2022-08-09T19:26:29.218Z,98442.22
2022-08-09T19:29:01.598Z,98443.38
2022-08-09T19:31:30.394Z,98439.16
2022-08-09T19:33:59.728Z,98442.06
2022-08-09T19:36:30.949Z,98438.28
2022-08-09T19:39:01.214Z,98442.22
2022-08-09T19:41:35.693Z,98453.38
2022-08-09T19:44:04.108Z,98456.69
2022-08-09T19:46:50.285Z,98451.88
2022-08-09T19:50:08.331Z,98460.22
2022-08-09T19:52:09.092Z,98458.78
2022-08-09T19:54:39.870Z,98456.69
2022-08-09T19:57:08.372Z,98462.63
2022-08-09T19:59:57.274Z,98469.66
2022-08-09T20:04:12.370Z,98464.19
2022-08-09T20:05:14.907Z,98462.44
2022-08-09T20:07:58.718Z,98472.38
2022-08-09T20:10:36.390Z,98467.16
2022-08-09T20:13:05.696Z,98468.22
2022-08-09T20:16:33.707Z,98470.00
2022-08-09T20:18:22.292Z,98462.19
2022-08-09T20:20:55.160Z,98452.47
2022-08-09T20:23:23.792Z,98463.06
2022-08-09T20:25:53.327Z,98462.44
2022-08-09T20:28:28.102Z,98463.50
2022-08-09T20:31:04.897Z,98474.06
2022-08-09T20:33:39.043Z,98472.16
2022-08-09T20:36:10.570Z,98471.69
2022-08-09T20:39:02.926Z,98465.16
2022-08-09T20:41:32.566Z,98465.91
2022-08-09T20:44:06.757Z,98456.78
2022-08-09T20:46:43.082Z,98456.91
2022-08-09T20:49:12.807Z,98457.84
2022-08-09T20:51:42.549Z,98455.59
2022-08-09T20:54:10.531Z,98458.69
2022-08-09T20:56:41.072Z,98454.31
2022-08-09T20:59:08.541Z,98459.19
2022-08-09T21:01:50.015Z,98453.25
2022-08-09T21:05:54.482Z,98448.41
2022-08-09T21:07:11.513Z,98454.56
2022-08-09T21:09:45.946Z,98449.81
2022-08-09T21:15:12.896Z,98452.44
2022-08-09T21:18:11.144Z,98446.66
2022-08-09T21:20:29.935Z,98443.78
2022-08-09T21:22:59.321Z,98438.81
2022-08-09T21:25:27.278Z,98453.97
2022-08-09T21:28:07.430Z,98455.63
2022-08-09T21:30:40.306Z,98450.53
2022-08-09T21:33:08.376Z,98450.75
2022-08-09T21:35:39.509Z,98450.63
2022-08-09T21:38:31.368Z,98456.31
2022-08-09T21:40:59.477Z,98451.91
2022-08-09T21:43:46.558Z,98457.97
2022-08-09T21:46:14.213Z,98457.25
2022-08-09T21:48:42.650Z,98450.97
2022-08-09T21:51:24.146Z,98455.84
2022-08-09T21:54:04.913Z,98451.31
2022-08-09T21:56:42.025Z,98453.09
2022-08-09T21:59:12.055Z,98446.81
2022-08-09T22:01:59.000Z,98451.22
2022-08-09T22:04:55.273Z,98460.22
2022-08-09T22:07:23.271Z,98458.78
2022-08-09T22:10:07.840Z,98459.50
2022-08-09T22:12:37.345Z,98461.91
2022-08-09T22:15:08.931Z,98452.19
2022-08-09T22:17:46.412Z,98453.09
2022-08-09T22:20:21.551Z,98453.97
2022-08-09T22:22:49.312Z,98459.63
2022-08-09T22:26:08.249Z,98452.03
2022-08-09T22:28:06.570Z,98453.69
2022-08-09T22:30:34.943Z,98448.59
2022-08-09T22:33:09.421Z,98448.09
2022-08-09T22:36:00.680Z,98451.09
2022-08-09T22:38:24.816Z,98446.44
2022-08-09T22:40:57.589Z,98443.63
2022-08-09T22:44:02.796Z,98450.38
2022-08-09T22:48:14.952Z,98450.47
2022-08-09T22:49:09.507Z,98449.75
2022-08-09T22:51:38.180Z,98443.88
2022-08-09T22:54:08.292Z,98444.94
2022-08-09T22:56:41.489Z,98443.97
2022-08-09T22:59:55.731Z,98450.25
2022-08-09T23:01:57.147Z,98450.63
2022-08-09T23:04:25.538Z,98448.97
2022-08-09T23:06:53.288Z,98451.09
2022-08-09T23:09:20.751Z,98453.34
2022-08-09T23:11:49.596Z,98458.66
2022-08-09T23:14:17.625Z,98452.97
2022-08-09T23:17:04.628Z,98455.34
2022-08-09T23:19:32.031Z,98453.69
2022-08-09T23:22:19.421Z,98450.38
2022-08-09T23:24:48.638Z,98450.72
2022-08-09T23:27:17.848Z,98450.16
2022-08-09T23:29:45.230Z,98457.59
2022-08-09T23:32:13.006Z,98452.75
2022-08-09T23:34:40.424Z,98455.81
2022-08-09T23:37:07.844Z,98453.34
2022-08-09T23:39:35.343Z,98456.63
2022-08-09T23:42:02.960Z,98464.09
2022-08-09T23:44:31.839Z,98462.09
2022-08-09T23:46:59.345Z,98462.13
2022-08-09T23:49:26.722Z,98464.59
2022-08-09T23:51:54.512Z,98462.94
2022-08-09T23:54:26.590Z,98462.34
2022-08-09T23:56:58.122Z,98460.44
2022-08-09T23:59:26.331Z,98461.38
